createdAt,value
2022-10-07T00:01:11.533Z,87.16
2022-10-07T00:03:40.088Z,86.70
2022-10-07T00:06:11.462Z,87.03
2022-10-07T00:08:40.689Z,86.95
2022-10-07T00:11:11.318Z,87.00
2022-10-07T00:13:41.138Z,86.94
2022-10-07T00:16:12.275Z,87.14
2022-10-07T00:18:41.194Z,86.74
2022-10-07T00:21:11.875Z,87.16
2022-10-07T00:23:41.741Z,87.24
2022-10-07T00:26:12.040Z,86.56
2022-10-07T00:28:40.602Z,86.98
2022-10-07T00:31:13.157Z,87.33
2022-10-07T00:33:41.610Z,87.07
2022-10-07T00:36:10.750Z,86.55
2022-10-07T00:38:38.720Z,87.04
2022-10-07T00:41:07.718Z,87.36
2022-10-07T00:43:35.659Z,87.07
2022-10-07T00:46:09.045Z,86.28
2022-10-07T00:48:40.242Z,86.85
2022-10-07T00:51:10.415Z,87.35
2022-10-07T00:53:42.194Z,87.06
2022-10-07T00:56:12.039Z,87.40
2022-10-07T00:58:42.836Z,88.20
2022-10-07T01:01:12.169Z,88.21
2022-10-07T01:03:44.046Z,88.07
2022-10-07T01:06:11.992Z,87.97
2022-10-07T01:08:42.227Z,87.85
2022-10-07T01:11:21.503Z,88.09
2022-10-07T01:14:00.383Z,87.73
2022-10-07T01:16:34.542Z,87.70
2022-10-07T01:19:19.367Z,87.83
2022-10-07T01:22:00.631Z,87.82
2022-10-07T01:24:41.523Z,87.52
2022-10-07T01:27:15.321Z,88.08
2022-10-07T01:29:55.949Z,88.08
2022-10-07T01:32:32.261Z,88.18
2022-10-07T01:35:05.911Z,88.33
2022-10-07T01:37:39.156Z,88.14
2022-10-07T01:40:13.099Z,88.03
2022-10-07T01:42:42.837Z,87.89
2022-10-07T01:45:14.252Z,88.18
2022-10-07T01:47:42.478Z,87.60
2022-10-07T01:50:13.468Z,87.79
2022-10-07T01:52:52.928Z,88.12
2022-10-07T01:55:38.801Z,88.47
2022-10-07T01:58:24.670Z,88.26
2022-10-07T02:01:00.250Z,87.89
2022-10-07T02:03:39.718Z,88.51
2022-10-07T02:06:11.983Z,88.40
2022-10-07T02:08:44.224Z,88.65
2022-10-07T02:11:15.966Z,88.99
2022-10-07T02:14:01.387Z,89.05
2022-10-07T02:16:38.712Z,89.13
2022-10-07T02:19:11.656Z,88.80
2022-10-07T02:21:42.348Z,89.20
2022-10-07T02:24:12.872Z,89.52
2022-10-07T02:26:44.419Z,88.91
2022-10-07T02:29:19.288Z,88.99
2022-10-07T02:31:49.602Z,88.58
2022-10-07T02:34:21.272Z,88.71
2022-10-07T02:36:55.847Z,88.85
2022-10-07T02:39:23.887Z,88.66
2022-10-07T02:42:01.468Z,88.55
2022-10-07T02:44:36.228Z,88.47
2022-10-07T02:47:07.881Z,89.19
2022-10-07T02:49:40.868Z,89.52
2022-10-07T02:52:11.648Z,89.08
2022-10-07T02:54:44.650Z,89.25
2022-10-07T02:57:16.405Z,89.01
2022-10-07T02:59:48.380Z,89.50
2022-10-07T03:02:24.283Z,88.63
2022-10-07T03:04:52.288Z,89.33
2022-10-07T03:07:21.433Z,89.12
2022-10-07T03:09:49.900Z,89.67
2022-10-07T03:12:17.915Z,89.75
2022-10-07T03:14:50.088Z,89.35
2022-10-07T03:17:20.534Z,88.62
2022-10-07T03:19:49.640Z,88.83
2022-10-07T03:22:17.879Z,88.85
2022-10-07T03:24:45.824Z,89.43
2022-10-07T03:27:13.774Z,89.67
2022-10-07T03:29:41.733Z,89.39
2022-10-07T03:32:11.548Z,89.25
2022-10-07T03:34:39.395Z,90.13
2022-10-07T03:37:08.434Z,89.52
2022-10-07T03:39:36.575Z,89.40
2022-10-07T03:42:05.405Z,89.24
2022-10-07T03:44:35.655Z,89.41
2022-10-07T03:47:07.572Z,88.71
2022-10-07T03:49:41.615Z,88.58
2022-10-07T03:52:09.770Z,88.52
2022-10-07T03:54:37.843Z,88.79
2022-10-07T03:57:28.368Z,88.93
2022-10-07T03:59:58.819Z,89.25
2022-10-07T04:02:26.782Z,88.76
2022-10-07T04:04:58.920Z,88.72
2022-10-07T04:07:27.437Z,88.53
2022-10-07T04:09:55.611Z,88.58
2022-10-07T04:12:23.635Z,88.85
2022-10-07T04:14:51.622Z,88.65
2022-10-07T04:17:19.895Z,88.52
2022-10-07T04:19:47.916Z,89.33
2022-10-07T04:22:19.268Z,88.97
2022-10-07T04:25:07.399Z,89.16
2022-10-07T04:27:51.104Z,88.67
2022-10-07T04:30:20.843Z,89.16
2022-10-07T04:32:50.771Z,89.15
2022-10-07T04:35:23.170Z,89.00
2022-10-07T04:37:55.519Z,89.77
2022-10-07T04:40:27.486Z,89.78
2022-10-07T04:43:13.418Z,89.35
2022-10-07T04:45:41.608Z,89.45
2022-10-07T04:48:10.452Z,89.88
2022-10-07T04:50:40.080Z,89.49
2022-10-07T04:53:12.112Z,89.61
2022-10-07T04:55:41.928Z,89.90
2022-10-07T04:58:10.345Z,89.82
2022-10-07T05:00:43.329Z,89.25
2022-10-07T05:03:12.055Z,89.04
2022-10-07T05:05:42.981Z,89.65
2022-10-07T05:08:12.821Z,90.15
2022-10-07T05:10:41.788Z,90.19
2022-10-07T05:13:12.413Z,90.41
2022-10-07T05:15:49.942Z,90.12
2022-10-07T05:18:19.671Z,89.98
2022-10-07T05:20:49.799Z,90.77
2022-10-07T05:23:25.631Z,90.15
2022-10-07T05:25:59.148Z,90.21
2022-10-07T05:28:28.046Z,89.88
2022-10-07T05:31:06.732Z,90.27
2022-10-07T05:33:36.153Z,90.28
2022-10-07T05:36:06.444Z,89.78
2022-10-07T05:38:36.884Z,89.73
2022-10-07T05:41:07.424Z,90.04
2022-10-07T05:43:42.128Z,90.64
2022-10-07T05:46:15.720Z,90.48
2022-10-07T05:48:49.748Z,90.17
2022-10-07T05:51:18.894Z,90.42
2022-10-07T05:53:48.719Z,90.46
2022-10-07T05:56:20.102Z,90.29
2022-10-07T05:58:48.700Z,90.46
2022-10-07T06:01:18.507Z,90.61
2022-10-07T06:03:51.183Z,90.40
2022-10-07T06:06:19.810Z,90.56
2022-10-07T06:08:52.406Z,89.97
2022-10-07T06:11:38.582Z,89.41
2022-10-07T06:14:07.696Z,89.78
2022-10-07T06:16:35.716Z,89.74
2022-10-07T06:19:03.620Z,89.03
2022-10-07T06:21:32.537Z,88.47
2022-10-07T06:24:05.859Z,87.87
2022-10-07T06:26:35.912Z,87.62
2022-10-07T06:29:05.708Z,87.31
2022-10-07T06:31:39.543Z,87.14
2022-10-07T06:34:08.155Z,86.59
2022-10-07T06:36:36.217Z,86.49
2022-10-07T06:39:05.627Z,86.40
2022-10-07T06:41:38.731Z,86.04
2022-10-07T06:44:20.745Z,85.54
2022-10-07T06:46:48.701Z,85.64
2022-10-07T06:49:17.168Z,85.20
2022-10-07T06:51:46.712Z,85.23
2022-10-07T06:54:16.129Z,85.55
2022-10-07T06:56:44.037Z,85.38
2022-10-07T06:59:12.345Z,84.81
2022-10-07T07:01:51.286Z,84.61
2022-10-07T07:04:19.324Z,84.32
2022-10-07T07:06:47.513Z,84.28
2022-10-07T07:09:17.644Z,84.51
2022-10-07T07:11:50.027Z,84.30
2022-10-07T07:14:25.786Z,84.29
2022-10-07T07:17:00.562Z,84.23
2022-10-07T07:19:29.270Z,84.13
2022-10-07T07:21:58.044Z,84.27
2022-10-07T07:24:29.369Z,83.62
2022-10-07T07:26:58.094Z,83.58
2022-10-07T07:29:28.776Z,83.59
2022-10-07T07:32:00.342Z,83.06
2022-10-07T07:34:31.189Z,83.40
2022-10-07T07:36:59.124Z,83.19
2022-10-07T07:39:37.513Z,82.62
2022-10-07T07:42:11.071Z,82.53
2022-10-07T07:44:40.150Z,82.81
2022-10-07T07:47:11.655Z,82.41
2022-10-07T07:49:40.352Z,81.87
2022-10-07T07:52:12.218Z,81.95
2022-10-07T07:54:48.368Z,82.22
2022-10-07T07:57:16.283Z,81.87
2022-10-07T07:59:44.835Z,81.75
2022-10-07T08:02:16.080Z,81.90
2022-10-07T08:04:48.223Z,81.60
2022-10-07T08:07:16.909Z,81.24
2022-10-07T08:09:49.928Z,81.43
2022-10-07T08:12:20.970Z,80.78
2022-10-07T08:14:49.534Z,81.32
2022-10-07T08:17:18.264Z,81.15
2022-10-07T08:19:47.102Z,80.63
2022-10-07T08:22:17.733Z,81.13
2022-10-07T08:24:49.739Z,80.78
2022-10-07T08:27:20.470Z,81.30
2022-10-07T08:29:48.384Z,80.52
2022-10-07T08:32:16.382Z,80.60
2022-10-07T08:34:44.231Z,79.79
2022-10-07T08:37:12.128Z,80.31
2022-10-07T08:39:40.051Z,79.82
2022-10-07T08:42:15.888Z,79.98
2022-10-07T08:44:47.645Z,79.99
2022-10-07T08:47:23.876Z,79.05
2022-10-07T08:50:00.687Z,79.38
2022-10-07T08:52:40.689Z,79.57
2022-10-07T08:55:18.684Z,79.25
2022-10-07T08:58:33.731Z,79.05
2022-10-07T09:01:15.461Z,78.63
2022-10-07T09:03:51.632Z,79.28
2022-10-07T09:06:28.459Z,79.39
2022-10-07T09:09:00.259Z,78.93
2022-10-07T09:11:30.171Z,79.28
2022-10-07T09:14:03.876Z,79.12
2022-10-07T09:16:37.023Z,77.80
2022-10-07T09:19:05.965Z,78.13
2022-10-07T09:21:38.889Z,77.86
2022-10-07T09:24:17.544Z,78.70
2022-10-07T09:26:45.588Z,78.43
2022-10-07T09:29:15.143Z,77.50
2022-10-07T09:31:43.039Z,77.54
2022-10-07T09:34:19.478Z,77.38
2022-10-07T09:37:17.269Z,77.42
2022-10-07T09:39:46.338Z,77.74
2022-10-07T09:42:30.713Z,77.43
2022-10-07T09:45:02.849Z,77.10
2022-10-07T09:47:36.204Z,77.25
2022-10-07T09:50:05.024Z,76.54
2022-10-07T09:52:33.551Z,77.50
2022-10-07T09:55:31.984Z,77.22
2022-10-07T09:58:01.582Z,77.45
2022-10-07T10:00:31.527Z,77.34
2022-10-07T10:03:05.761Z,77.17
2022-10-07T10:05:36.260Z,77.24
2022-10-07T10:08:07.003Z,77.40
2022-10-07T10:10:36.912Z,76.81
2022-10-07T10:13:07.338Z,76.02
2022-10-07T10:15:42.469Z,76.31
2022-10-07T10:18:34.433Z,75.66
2022-10-07T10:21:19.892Z,76.31
2022-10-07T10:23:50.176Z,76.79
2022-10-07T10:26:33.843Z,76.17
2022-10-07T10:29:18.421Z,75.03
2022-10-07T10:32:05.260Z,75.81
2022-10-07T10:34:42.383Z,76.16
2022-10-07T10:37:18.427Z,75.42
2022-10-07T10:39:58.209Z,74.62
2022-10-07T10:42:35.114Z,76.18
2022-10-07T10:45:18.357Z,74.74
2022-10-07T10:48:04.609Z,74.52
2022-10-07T10:50:43.352Z,75.33
2022-10-07T10:53:29.471Z,76.01
2022-10-07T10:56:24.329Z,75.20
2022-10-07T10:59:03.305Z,74.54
2022-10-07T11:01:37.675Z,74.34
2022-10-07T11:04:35.966Z,74.71
2022-10-07T11:07:09.343Z,75.17
2022-10-07T11:09:41.748Z,74.87
2022-10-07T11:12:22.328Z,75.18
2022-10-07T11:14:57.921Z,75.37
2022-10-07T11:17:31.965Z,75.16
2022-10-07T11:20:14.548Z,74.88
2022-10-07T11:22:47.832Z,74.96
2022-10-07T11:25:26.538Z,75.01
2022-10-07T11:27:56.901Z,74.75
2022-10-07T11:30:26.303Z,75.02
2022-10-07T11:33:00.515Z,75.38
2022-10-07T11:35:33.613Z,74.56
2022-10-07T11:38:10.592Z,74.83
2022-10-07T11:40:45.311Z,73.04
2022-10-07T11:43:18.387Z,73.04
2022-10-07T11:45:52.084Z,73.92
2022-10-07T11:48:25.081Z,72.69
2022-10-07T11:51:00.140Z,73.12
2022-10-07T11:53:29.838Z,72.22
2022-10-07T11:56:01.083Z,72.77
2022-10-07T11:58:32.922Z,72.49
2022-10-07T12:01:42.175Z,71.70
2022-10-07T12:04:46.486Z,71.19
2022-10-07T12:07:56.380Z,70.64
2022-10-07T12:10:27.257Z,71.47
2022-10-07T12:12:58.226Z,70.78
2022-10-07T12:15:32.446Z,70.23
2022-10-07T12:18:27.604Z,71.32
2022-10-07T12:21:03.827Z,71.57
2022-10-07T12:23:42.237Z,71.15
2022-10-07T12:26:44.653Z,71.41
2022-10-07T12:29:22.439Z,70.58
2022-10-07T12:31:50.987Z,71.22
2022-10-07T12:34:41.464Z,71.10
2022-10-07T12:37:45.837Z,70.62
2022-10-07T12:40:24.684Z,71.44
2022-10-07T12:42:57.588Z,69.39
2022-10-07T12:45:28.649Z,69.83
2022-10-07T12:48:00.570Z,69.81
2022-10-07T12:50:31.793Z,70.81
2022-10-07T12:53:03.881Z,69.86
2022-10-07T12:55:37.072Z,70.89
2022-10-07T12:58:32.177Z,70.67
2022-10-07T13:01:16.648Z,70.74
2022-10-07T13:04:11.311Z,70.41
2022-10-07T13:07:06.347Z,71.35
2022-10-07T13:10:13.503Z,70.71
2022-10-07T13:12:48.413Z,72.31
2022-10-07T13:15:30.451Z,71.38
2022-10-07T13:18:10.667Z,71.53
2022-10-07T13:20:48.635Z,71.59
2022-10-07T13:23:23.219Z,70.59
2022-10-07T13:25:54.711Z,71.19
2022-10-07T13:28:26.743Z,72.33
2022-10-07T13:30:54.822Z,72.18
2022-10-07T13:33:26.694Z,71.34
2022-10-07T13:36:09.026Z,71.82
2022-10-07T13:38:37.139Z,71.60
2022-10-07T13:41:12.554Z,71.69
2022-10-07T13:43:44.797Z,71.68
2022-10-07T13:46:14.506Z,72.19
2022-10-07T13:48:45.960Z,71.53
2022-10-07T13:51:23.203Z,71.45
2022-10-07T13:53:57.559Z,72.16
2022-10-07T13:56:28.076Z,72.58
2022-10-07T13:58:58.676Z,72.22
2022-10-07T14:01:30.061Z,72.85
2022-10-07T14:04:03.765Z,73.01
2022-10-07T14:06:39.074Z,72.59
2022-10-07T14:09:18.338Z,72.93
2022-10-07T14:11:47.962Z,72.07
2022-10-07T14:14:23.933Z,72.71
2022-10-07T14:16:59.629Z,71.87
2022-10-07T14:19:33.313Z,72.05
2022-10-07T14:22:04.465Z,72.56
2022-10-07T14:24:32.853Z,71.59
2022-10-07T14:27:00.775Z,71.92
2022-10-07T14:29:39.247Z,72.55
2022-10-07T14:32:30.425Z,71.63
2022-10-07T14:35:22.124Z,72.28
2022-10-07T14:37:50.404Z,72.08
2022-10-07T14:40:20.855Z,72.03
2022-10-07T14:42:52.195Z,72.05
2022-10-07T14:45:22.452Z,72.14
2022-10-07T14:47:50.773Z,71.93
2022-10-07T14:50:20.384Z,72.46
2022-10-07T14:52:52.125Z,72.94
2022-10-07T14:55:24.789Z,72.47
2022-10-07T14:57:52.843Z,72.91
2022-10-07T15:00:25.106Z,73.52
2022-10-07T15:02:53.203Z,72.85
2022-10-07T15:05:22.660Z,72.70
2022-10-07T15:07:51.378Z,72.93
2022-10-07T15:10:21.372Z,72.95
2022-10-07T15:12:49.646Z,73.07
2022-10-07T15:15:18.169Z,73.29
2022-10-07T15:17:47.968Z,73.03
2022-10-07T15:20:17.146Z,73.75
2022-10-07T15:22:46.406Z,73.97
2022-10-07T15:25:16.424Z,74.06
2022-10-07T15:27:44.722Z,74.79
2022-10-07T15:30:13.999Z,74.97
2022-10-07T15:32:41.841Z,75.51
2022-10-07T15:35:11.323Z,75.02
2022-10-07T15:37:39.489Z,75.29
2022-10-07T15:40:08.916Z,74.66
2022-10-07T15:42:36.850Z,74.77
2022-10-07T15:45:05.500Z,75.71
2022-10-07T15:47:34.448Z,75.08
2022-10-07T15:50:02.383Z,75.29
2022-10-07T15:52:31.671Z,75.35
2022-10-07T15:55:03.694Z,75.34
2022-10-07T15:57:34.544Z,75.13
2022-10-07T16:00:02.657Z,75.04
2022-10-07T16:02:39.984Z,75.01
2022-10-07T16:05:09.533Z,75.23
2022-10-07T16:07:38.989Z,75.58
2022-10-07T16:10:12.098Z,76.34
2022-10-07T16:12:41.111Z,76.52
2022-10-07T16:15:09.532Z,76.51
2022-10-07T16:17:37.526Z,76.56
2022-10-07T16:20:11.030Z,76.50
2022-10-07T16:22:40.726Z,76.66
2022-10-07T16:25:09.265Z,77.04
2022-10-07T16:27:51.086Z,77.24
2022-10-07T16:30:36.851Z,76.89
2022-10-07T16:33:04.852Z,77.39
2022-10-07T16:35:32.770Z,77.44
2022-10-07T16:38:02.819Z,77.41
2022-10-07T16:40:30.735Z,77.45
2022-10-07T16:42:59.674Z,78.05
2022-10-07T16:45:27.831Z,77.91
2022-10-07T16:47:56.286Z,78.03
2022-10-07T16:50:24.597Z,78.30
2022-10-07T16:52:52.494Z,78.59
2022-10-07T16:55:21.734Z,78.79
2022-10-07T16:57:49.588Z,79.03
2022-10-07T17:00:17.728Z,79.73
2022-10-07T17:02:45.599Z,79.78
2022-10-07T17:05:13.951Z,79.96
2022-10-07T17:07:41.862Z,80.45
2022-10-07T17:10:10.618Z,80.80
2022-10-07T17:12:39.938Z,80.76
2022-10-07T17:15:09.012Z,81.24
2022-10-07T17:17:36.962Z,81.64
2022-10-07T17:20:05.668Z,82.04
2022-10-07T17:22:33.595Z,82.24
2022-10-07T17:25:03.143Z,82.60
2022-10-07T17:27:31.078Z,82.69
2022-10-07T17:30:01.016Z,83.03
2022-10-07T17:32:29.369Z,82.89
2022-10-07T17:34:57.296Z,83.31
2022-10-07T17:37:25.208Z,83.53
2022-10-07T17:39:53.104Z,84.11
2022-10-07T17:42:20.967Z,83.84
2022-10-07T17:44:49.860Z,84.08
2022-10-07T17:47:19.164Z,83.88
2022-10-07T17:49:47.269Z,83.95
2022-10-07T17:52:15.294Z,84.27
2022-10-07T17:54:43.181Z,84.68
2022-10-07T17:57:11.075Z,84.78
2022-10-07T17:59:39.788Z,85.04
2022-10-07T18:02:07.767Z,85.29
2022-10-07T18:04:37.091Z,85.12
2022-10-07T18:07:05.045Z,84.95
2022-10-07T18:09:33.081Z,85.18
2022-10-07T18:12:29.823Z,85.12
2022-10-07T18:15:15.360Z,85.58
2022-10-07T18:17:43.532Z,85.71
2022-10-07T18:20:15.266Z,85.60
2022-10-07T18:22:44.145Z,86.05
2022-10-07T18:25:12.580Z,86.19
2022-10-07T18:27:41.099Z,85.86
2022-10-07T18:30:10.195Z,86.02
2022-10-07T18:32:38.078Z,86.17
2022-10-07T18:35:06.695Z,86.15
2022-10-07T18:37:36.163Z,86.20
2022-10-07T18:40:04.533Z,86.46
2022-10-07T18:42:32.405Z,86.56
2022-10-07T18:45:00.406Z,86.67
2022-10-07T18:47:28.251Z,86.47
2022-10-07T18:49:57.425Z,86.71
2022-10-07T18:52:25.331Z,86.78
2022-10-07T18:54:54.656Z,86.99
2022-10-07T18:57:22.854Z,86.70
2022-10-07T18:59:50.812Z,86.73
2022-10-07T19:02:18.739Z,86.76
2022-10-07T19:04:46.670Z,87.05
2022-10-07T19:07:14.575Z,87.14
2022-10-07T19:09:42.445Z,86.88
2022-10-07T19:12:25.611Z,86.87
2022-10-07T19:14:54.102Z,87.51
2022-10-07T19:17:22.207Z,87.67
2022-10-07T19:19:50.263Z,87.65
2022-10-07T19:22:18.127Z,87.99
2022-10-07T19:25:03.633Z,87.83
2022-10-07T19:27:32.909Z,88.01
2022-10-07T19:30:01.262Z,88.25
2022-10-07T19:32:29.161Z,87.84
2022-10-07T19:34:57.316Z,87.89
2022-10-07T19:37:25.280Z,88.06
2022-10-07T19:39:53.167Z,87.92
2022-10-07T19:42:21.060Z,87.97
2022-10-07T19:44:50.780Z,88.50
2022-10-07T19:47:18.813Z,87.93
2022-10-07T19:49:46.874Z,87.85
2022-10-07T19:52:15.662Z,88.20
2022-10-07T19:54:45.850Z,88.25
2022-10-07T19:57:13.700Z,88.54
2022-10-07T19:59:41.577Z,88.65
2022-10-07T20:02:12.264Z,88.46
2022-10-07T20:04:41.282Z,88.25
2022-10-07T20:07:09.291Z,88.11
2022-10-07T20:09:37.196Z,88.02
2022-10-07T20:12:05.411Z,88.44
2022-10-07T20:14:35.347Z,88.39
2022-10-07T20:17:03.435Z,88.96
2022-10-07T20:19:32.740Z,88.38
2022-10-07T20:22:01.314Z,88.29
2022-10-07T20:24:29.245Z,88.42
2022-10-07T20:26:57.193Z,88.38
2022-10-07T20:29:25.503Z,88.54
2022-10-07T20:31:53.652Z,88.58
2022-10-07T20:34:21.613Z,88.46
2022-10-07T20:36:51.320Z,88.71
2022-10-07T20:39:38.656Z,88.65
2022-10-07T20:42:22.461Z,88.93
2022-10-07T20:44:51.233Z,89.18
2022-10-07T20:47:20.496Z,89.07
2022-10-07T20:49:50.714Z,89.28
2022-10-07T20:52:21.853Z,89.38
2022-10-07T20:54:51.109Z,89.39
2022-10-07T20:57:21.427Z,89.52
2022-10-07T20:59:49.811Z,89.69
2022-10-07T21:02:20.384Z,89.17
2022-10-07T21:04:48.370Z,89.67
2022-10-07T21:07:18.239Z,89.41
2022-10-07T21:09:48.594Z,89.59
2022-10-07T21:12:18.405Z,89.81
2022-10-07T21:14:48.354Z,89.80
2022-10-07T21:17:16.877Z,89.72
2022-10-07T21:19:45.731Z,90.17
2022-10-07T21:22:13.639Z,89.88
2022-10-07T21:24:41.555Z,90.16
2022-10-07T21:27:11.513Z,90.37
2022-10-07T21:29:41.200Z,90.13
2022-10-07T21:32:10.373Z,90.11
2022-10-07T21:34:38.866Z,90.54
2022-10-07T21:37:06.808Z,90.39
2022-10-07T21:39:34.820Z,90.69
2022-10-07T21:42:02.764Z,90.78
2022-10-07T21:44:33.392Z,90.45
2022-10-07T21:47:01.476Z,90.75
2022-10-07T21:49:29.444Z,91.19
2022-10-07T21:51:57.355Z,91.22
2022-10-07T21:54:25.231Z,91.48
2022-10-07T21:56:53.111Z,91.89
2022-10-07T21:59:21.067Z,92.01
2022-10-07T22:01:50.455Z,92.00
2022-10-07T22:04:19.994Z,92.24
2022-10-07T22:07:05.369Z,92.17
2022-10-07T22:09:34.828Z,92.26
2022-10-07T22:12:02.680Z,92.67
2022-10-07T22:14:30.604Z,92.82
2022-10-07T22:16:59.902Z,92.39
2022-10-07T22:19:27.899Z,93.03
2022-10-07T22:21:55.789Z,93.12
2022-10-07T22:24:24.603Z,92.98
2022-10-07T22:26:52.483Z,93.13
2022-10-07T22:29:21.784Z,92.79
2022-10-07T22:31:49.913Z,93.12
2022-10-07T22:34:36.956Z,93.25
2022-10-07T22:37:05.200Z,93.59
2022-10-07T22:39:33.147Z,93.41
2022-10-07T22:42:03.627Z,93.34
2022-10-07T22:44:31.806Z,93.53
2022-10-07T22:47:00.354Z,93.63
2022-10-07T22:49:30.387Z,93.80
2022-10-07T22:51:59.663Z,93.46
2022-10-07T22:54:28.454Z,93.46
2022-10-07T22:56:56.688Z,93.60
2022-10-07T22:59:24.586Z,93.85
2022-10-07T23:01:53.012Z,93.53
2022-10-07T23:04:21.499Z,93.79
2022-10-07T23:06:51.036Z,93.94
2022-10-07T23:09:18.937Z,93.67
2022-10-07T23:11:46.920Z,93.47
2022-10-07T23:14:14.892Z,93.62
2022-10-07T23:16:44.265Z,93.70
2022-10-07T23:19:12.332Z,93.61
2022-10-07T23:21:40.171Z,93.64
2022-10-07T23:24:10.206Z,93.86
2022-10-07T23:26:38.890Z,93.88
2022-10-07T23:29:07.497Z,93.75
2022-10-07T23:31:35.528Z,93.44
2022-10-07T23:34:03.988Z,93.83
2022-10-07T23:36:33.021Z,93.75
2022-10-07T23:39:01.609Z,94.07
2022-10-07T23:41:31.985Z,93.76
2022-10-07T23:44:01.973Z,93.61
2022-10-07T23:46:32.830Z,93.86
2022-10-07T23:49:01.005Z,93.51
2022-10-07T23:51:30.045Z,93.50
2022-10-07T23:53:58.384Z,93.12
2022-10-07T23:56:26.608Z,93.63
2022-10-07T23:58:56.307Z,94.18
